createdAt,value
2023-01-06T00:00:23.895Z,101801.94
2023-01-06T00:02:25.401Z,101801.94
2023-01-06T00:04:27.627Z,101794.03
2023-01-06T00:06:31.147Z,101801.06
2023-01-06T00:08:34.634Z,101798.41
2023-01-06T00:10:36.804Z,101791.41
2023-01-06T00:12:38.510Z,101791.41
2023-01-06T00:14:42.560Z,101792.28
2023-01-06T00:16:44.037Z,101787.00
2023-01-06T00:18:46.172Z,101788.75
2023-01-06T00:20:47.637Z,101774.69
2023-01-06T00:22:49.088Z,101776.44
2023-01-06T00:24:50.545Z,101777.31
2023-01-06T00:26:52.000Z,101781.72
2023-01-06T00:28:54.844Z,101782.59
2023-01-06T00:30:56.409Z,101778.19
2023-01-06T00:32:57.882Z,101779.94
2023-01-06T00:34:59.388Z,101778.19
2023-01-06T00:37:00.905Z,101776.44
2023-01-06T00:39:02.589Z,101769.38
2023-01-06T00:41:33.187Z,101773.78
2023-01-06T00:43:34.635Z,101766.75
2023-01-06T00:45:36.083Z,101765.00
2023-01-06T00:47:37.532Z,101769.41
2023-01-06T00:49:39.004Z,101758.84
2023-01-06T00:51:41.102Z,101757.97
2023-01-06T00:53:42.557Z,101752.69
2023-01-06T00:55:44.055Z,101751.81
2023-01-06T00:57:45.489Z,101749.16
2023-01-06T00:59:47.073Z,101752.66
2023-01-06T01:01:50.950Z,101749.16
2023-01-06T01:03:52.491Z,101749.16
2023-01-06T01:05:59.546Z,101742.97
2023-01-06T01:08:01.188Z,101750.88
2023-01-06T01:10:03.255Z,101742.97
2023-01-06T01:12:11.983Z,101750.00
2023-01-06T01:14:16.280Z,101744.72
2023-01-06T01:16:17.741Z,101743.84
2023-01-06T01:18:19.201Z,101748.22
2023-01-06T01:20:20.657Z,101743.81
2023-01-06T01:22:23.720Z,101749.94
2023-01-06T01:24:25.345Z,101740.28
2023-01-06T01:26:26.829Z,101738.50
2023-01-06T01:28:28.271Z,101730.59
2023-01-06T01:30:29.705Z,101730.59
2023-01-06T01:32:31.171Z,101727.97
2023-01-06T01:34:33.235Z,101730.59
2023-01-06T01:36:34.731Z,101727.06
2023-01-06T01:38:36.475Z,101732.31
2023-01-06T01:40:37.906Z,101728.81
2023-01-06T01:42:39.407Z,101725.28
2023-01-06T01:44:56.135Z,101732.28
2023-01-06T01:46:57.978Z,101735.81
2023-01-06T01:49:03.965Z,101730.53
2023-01-06T01:51:11.581Z,101730.53
2023-01-06T01:53:23.936Z,101727.88
2023-01-06T01:55:27.921Z,101716.47
2023-01-06T01:57:37.903Z,101720.84
2023-01-06T01:59:42.123Z,101721.72
2023-01-06T02:01:44.620Z,101727.84
2023-01-06T02:03:46.260Z,101721.69
2023-01-06T02:05:57.560Z,101716.44
2023-01-06T02:08:04.030Z,101721.69
2023-01-06T02:10:20.595Z,101725.19
2023-01-06T02:12:22.075Z,101715.53
2023-01-06T02:14:29.177Z,101718.16
2023-01-06T02:16:40.416Z,101709.38
2023-01-06T02:19:22.603Z,101704.06
2023-01-06T02:21:42.270Z,101706.69
2023-01-06T02:24:08.073Z,101702.28
2023-01-06T02:26:37.172Z,101700.53
2023-01-06T02:29:14.546Z,101700.50
2023-01-06T02:31:30.308Z,101690.84
2023-01-06T02:33:34.591Z,101686.44
2023-01-06T02:36:00.322Z,101686.44
2023-01-06T02:38:23.660Z,101691.72
2023-01-06T02:41:03.352Z,101682.06
2023-01-06T02:43:46.802Z,101676.75
2023-01-06T02:46:08.225Z,101665.31
2023-01-06T02:48:34.203Z,101668.81
2023-01-06T02:50:46.260Z,101665.28
2023-01-06T02:52:57.866Z,101669.66
2023-01-06T02:55:02.859Z,101664.38
2023-01-06T02:57:14.173Z,101657.31
2023-01-06T02:59:30.806Z,101658.19
2023-01-06T03:01:38.561Z,101651.16
2023-01-06T03:03:44.755Z,101641.47
2023-01-06T03:05:51.988Z,101641.44
2023-01-06T03:07:55.175Z,101648.44
2023-01-06T03:09:59.654Z,101639.66
2023-01-06T03:12:08.211Z,101636.13
2023-01-06T03:14:15.392Z,101633.44
2023-01-06T03:16:17.179Z,101626.44
2023-01-06T03:18:18.880Z,101624.66
2023-01-06T03:20:20.969Z,101624.66
2023-01-06T03:22:24.040Z,101614.13
2023-01-06T03:24:25.817Z,101614.13
2023-01-06T03:26:27.584Z,101616.75
2023-01-06T03:28:29.070Z,101620.28
2023-01-06T03:30:48.162Z,101607.09
2023-01-06T03:33:10.917Z,101609.72
2023-01-06T03:35:28.179Z,101610.63
2023-01-06T03:38:08.028Z,101603.56
2023-01-06T03:40:20.054Z,101600.09
2023-01-06T03:42:54.663Z,101615.03
2023-01-06T03:45:22.183Z,101598.34
2023-01-06T03:47:32.663Z,101605.31
2023-01-06T03:49:54.595Z,101604.44
2023-01-06T03:52:24.782Z,101605.34
2023-01-06T03:54:44.364Z,101603.56
2023-01-06T03:56:51.162Z,101604.44
2023-01-06T03:58:57.416Z,101595.66
2023-01-06T04:01:03.151Z,101599.16
2023-01-06T04:03:11.547Z,101587.75
2023-01-06T04:05:14.911Z,101586.88
2023-01-06T04:07:16.369Z,101582.47
2023-01-06T04:09:17.886Z,101582.44
2023-01-06T04:11:38.016Z,101578.91
2023-01-06T04:13:39.497Z,101571.00
2023-01-06T04:15:41.053Z,101571.00
2023-01-06T04:17:43.734Z,101560.44
2023-01-06T04:19:45.265Z,101560.41
2023-01-06T04:21:46.726Z,101548.09
2023-01-06T04:23:48.195Z,101545.44
2023-01-06T04:25:49.680Z,101547.16
2023-01-06T04:27:52.003Z,101551.56
2023-01-06T04:29:53.627Z,101549.78
2023-01-06T04:31:55.247Z,101548.91
2023-01-06T04:33:56.805Z,101540.13
2023-01-06T04:35:58.267Z,101543.63
2023-01-06T04:38:03.265Z,101543.63
2023-01-06T04:40:06.480Z,101538.34
2023-01-06T04:42:07.994Z,101528.69
2023-01-06T04:44:09.488Z,101523.41
2023-01-06T04:46:11.052Z,101518.13
2023-01-06T04:48:13.903Z,101512.88
2023-01-06T04:50:15.491Z,101505.88
2023-01-06T04:52:17.039Z,101512.03
2023-01-06T04:54:18.674Z,101511.19
2023-01-06T04:56:20.145Z,101499.75
2023-01-06T04:58:21.625Z,101490.09
2023-01-06T05:00:23.384Z,101490.97
2023-01-06T05:02:24.854Z,101496.25
2023-01-06T05:04:28.364Z,101505.03
2023-01-06T05:06:31.582Z,101499.78
2023-01-06T05:08:33.149Z,101488.34
2023-01-06T05:10:34.609Z,101499.75
2023-01-06T05:12:36.693Z,101492.72
2023-01-06T05:14:38.161Z,101491.81
2023-01-06T05:16:39.919Z,101492.69
2023-01-06T05:18:41.447Z,101493.59
2023-01-06T05:20:42.948Z,101492.72
2023-01-06T05:22:44.455Z,101497.13
2023-01-06T05:24:46.063Z,101505.91
2023-01-06T05:26:47.558Z,101501.53
2023-01-06T05:28:49.348Z,101497.09
2023-01-06T05:30:50.955Z,101501.47
2023-01-06T05:32:52.417Z,101501.44
2023-01-06T05:34:53.897Z,101490.00
2023-01-06T05:36:56.523Z,101499.72
2023-01-06T05:38:58.022Z,101485.66
2023-01-06T05:40:59.500Z,101490.09
2023-01-06T05:43:01.051Z,101487.41
2023-01-06T05:45:02.565Z,101474.25
2023-01-06T05:47:04.082Z,101469.00
2023-01-06T05:49:05.584Z,101486.53
2023-01-06T05:51:09.951Z,101487.44
2023-01-06T05:53:11.425Z,101489.16
2023-01-06T05:55:12.910Z,101483.91
2023-01-06T05:57:14.419Z,101482.19
2023-01-06T05:59:16.020Z,101461.06
2023-01-06T06:01:26.250Z,101469.81
2023-01-06T06:03:27.886Z,101469.81
2023-01-06T06:05:29.448Z,101459.25
2023-01-06T06:07:30.920Z,101461.91
2023-01-06T06:09:32.489Z,101456.66
2023-01-06T06:11:34.014Z,101457.53
2023-01-06T06:13:36.116Z,101466.31
2023-01-06T06:15:37.664Z,101463.63
2023-01-06T06:17:39.120Z,101455.75
2023-01-06T06:19:40.552Z,101453.09
2023-01-06T06:21:42.015Z,101451.31
2023-01-06T06:23:43.849Z,101446.91
2023-01-06T06:25:45.317Z,101446.91
2023-01-06T06:27:46.804Z,101444.25
2023-01-06T06:29:48.267Z,101449.53
2023-01-06T06:31:49.741Z,101446.84
2023-01-06T06:33:53.119Z,101438.06
2023-01-06T06:35:58.405Z,101445.06
2023-01-06T06:37:59.885Z,101438.03
2023-01-06T06:40:01.442Z,101429.22
2023-01-06T06:42:03.233Z,101435.41
2023-01-06T06:44:05.259Z,101438.94
2023-01-06T06:46:07.641Z,101443.28
2023-01-06T06:48:09.177Z,101431.84
2023-01-06T06:50:12.243Z,101435.34
2023-01-06T06:52:13.703Z,101425.69
2023-01-06T06:54:15.174Z,101428.31
2023-01-06T06:56:18.356Z,101432.72
2023-01-06T06:58:19.925Z,101429.19
2023-01-06T07:00:21.377Z,101428.31
2023-01-06T07:02:22.922Z,101441.47
2023-01-06T07:04:24.492Z,101426.47
2023-01-06T07:06:28.815Z,101424.69
2023-01-06T07:08:33.037Z,101421.16
2023-01-06T07:10:34.633Z,101420.31
2023-01-06T07:12:36.109Z,101417.63
2023-01-06T07:14:37.653Z,101414.09
2023-01-06T07:16:39.144Z,101409.72
2023-01-06T07:18:40.680Z,101408.84
2023-01-06T07:20:48.569Z,101409.75
2023-01-06T07:22:50.046Z,101406.22
2023-01-06T07:24:51.543Z,101405.38
2023-01-06T07:26:53.015Z,101406.22
2023-01-06T07:28:54.478Z,101403.59
2023-01-06T07:30:56.152Z,101410.59
2023-01-06T07:32:57.645Z,101410.53
2023-01-06T07:34:59.133Z,101407.06
2023-01-06T07:37:00.768Z,101394.72
2023-01-06T07:39:02.252Z,101381.53
2023-01-06T07:41:03.847Z,101390.31
2023-01-06T07:43:09.306Z,101391.22
2023-01-06T07:45:11.474Z,101401.78
2023-01-06T07:47:13.898Z,101392.06
2023-01-06T07:49:15.626Z,101398.28
2023-01-06T07:51:17.142Z,101400.84
2023-01-06T07:53:18.811Z,101398.16
2023-01-06T07:55:20.295Z,101396.44
2023-01-06T07:57:21.838Z,101400.91
2023-01-06T07:59:23.389Z,101402.72
2023-01-06T08:01:24.990Z,101398.34
2023-01-06T08:03:26.577Z,101402.75
2023-01-06T08:05:28.304Z,101399.28
2023-01-06T08:07:29.894Z,101389.56
2023-01-06T08:09:31.406Z,101393.09
2023-01-06T08:11:32.873Z,101394.88
2023-01-06T08:13:34.567Z,101391.34
2023-01-06T08:15:37.709Z,101393.09
2023-01-06T08:17:39.314Z,101394.91
2023-01-06T08:19:40.813Z,101398.44
2023-01-06T08:21:42.272Z,101399.31
2023-01-06T08:23:43.797Z,101392.31
2023-01-06T08:25:45.256Z,101395.84
2023-01-06T08:27:46.740Z,101395.03
2023-01-06T08:29:50.177Z,101399.44
2023-01-06T08:31:56.902Z,101401.22
2023-01-06T08:34:07.344Z,101406.53
2023-01-06T08:36:11.601Z,101406.59
2023-01-06T08:38:13.444Z,101417.16
2023-01-06T08:40:14.912Z,101410.13
2023-01-06T08:42:16.466Z,101415.44
2023-01-06T08:44:18.752Z,101423.34
2023-01-06T08:46:20.746Z,101421.66
2023-01-06T08:48:22.249Z,101417.28
2023-01-06T08:50:25.851Z,101427.88
2023-01-06T08:52:27.998Z,101423.50
2023-01-06T08:54:30.049Z,101422.66
2023-01-06T08:56:32.434Z,101431.50
2023-01-06T08:58:33.915Z,101435.06
2023-01-06T09:00:36.888Z,101430.66
2023-01-06T09:02:38.388Z,101427.16
2023-01-06T09:04:39.999Z,101436.81
2023-01-06T09:06:43.292Z,101429.78
2023-01-06T09:08:45.245Z,101440.31
2023-01-06T09:10:46.767Z,101442.06
2023-01-06T09:12:48.363Z,101441.19
2023-01-06T09:14:49.872Z,101447.31
2023-01-06T09:16:51.686Z,101446.47
2023-01-06T09:18:53.404Z,101451.72
2023-01-06T09:20:54.856Z,101446.38
2023-01-06T09:22:56.326Z,101446.38
2023-01-06T09:24:57.788Z,101452.50
2023-01-06T09:26:59.229Z,101461.22
2023-01-06T09:29:00.704Z,101462.94
2023-01-06T09:31:02.332Z,101470.81
2023-01-06T09:33:03.881Z,101462.91
2023-01-06T09:35:05.809Z,101470.81
2023-01-06T09:37:07.684Z,101469.03
2023-01-06T09:39:09.188Z,101474.34
2023-01-06T09:41:19.404Z,101475.22
2023-01-06T09:43:38.460Z,101482.28
2023-01-06T09:45:53.370Z,101475.19
2023-01-06T09:48:00.813Z,101472.53
2023-01-06T09:50:08.954Z,101483.97
2023-01-06T09:52:31.369Z,101493.59
2023-01-06T09:54:42.137Z,101482.19
2023-01-06T09:56:47.117Z,101477.78
2023-01-06T09:58:55.697Z,101477.75
2023-01-06T10:01:02.887Z,101485.63
2023-01-06T10:03:05.857Z,101487.34
2023-01-06T10:05:22.452Z,101483.78
2023-01-06T10:07:34.170Z,101489.91
2023-01-06T10:09:44.373Z,101495.13
2023-01-06T10:11:57.184Z,101502.97
2023-01-06T10:14:14.216Z,101500.31
2023-01-06T10:16:24.485Z,101504.66
2023-01-06T10:18:51.987Z,101515.19
2023-01-06T10:20:59.533Z,101516.91
2023-01-06T10:23:25.937Z,101521.34
2023-01-06T10:25:34.834Z,101516.97
2023-01-06T10:27:40.644Z,101512.59
2023-01-06T10:29:43.384Z,101527.56
2023-01-06T10:31:48.525Z,101513.53
2023-01-06T10:33:55.103Z,101526.75
2023-01-06T10:35:58.416Z,101526.75
2023-01-06T10:38:04.698Z,101541.69
2023-01-06T10:40:27.058Z,101533.75
2023-01-06T10:42:57.280Z,101542.53
2023-01-06T10:44:58.793Z,101531.94
2023-01-06T10:47:00.348Z,101538.91
2023-01-06T10:49:08.410Z,101543.22
2023-01-06T10:51:31.371Z,101548.41
2023-01-06T10:53:32.954Z,101541.25
2023-01-06T10:55:52.942Z,101551.72
2023-01-06T10:57:58.619Z,101550.69
2023-01-06T11:00:12.665Z,101549.66
2023-01-06T11:02:23.808Z,101563.50
2023-01-06T11:04:27.936Z,101556.22
2023-01-06T11:06:31.510Z,101559.44
2023-01-06T11:08:33.885Z,101571.22
2023-01-06T11:10:39.587Z,101565.81
2023-01-06T11:12:45.924Z,101569.72
2023-01-06T11:15:07.800Z,101571.97
2023-01-06T11:17:14.985Z,101574.75
2023-01-06T11:19:33.201Z,101562.53
2023-01-06T11:21:42.237Z,101577.13
2023-01-06T11:23:46.734Z,101579.84
2023-01-06T11:26:10.395Z,101582.75
2023-01-06T11:28:13.673Z,101582.19
2023-01-06T11:30:31.200Z,101588.50
2023-01-06T11:32:32.750Z,101586.41
2023-01-06T11:34:34.761Z,101587.72
2023-01-06T11:36:46.563Z,101591.53
2023-01-06T11:38:52.414Z,101587.91
2023-01-06T11:40:54.415Z,101593.81
2023-01-06T11:43:03.392Z,101594.00
2023-01-06T11:45:05.758Z,101596.56
2023-01-06T11:47:20.372Z,101595.31
2023-01-06T11:49:29.058Z,101604.22
2023-01-06T11:51:32.193Z,101595.63
2023-01-06T11:53:34.471Z,101604.69
2023-01-06T11:55:35.974Z,101597.03
2023-01-06T11:57:50.737Z,101605.38
2023-01-06T12:00:13.716Z,101599.34
2023-01-06T12:02:30.502Z,101603.06
2023-01-06T12:04:50.240Z,101601.34
2023-01-06T12:06:59.913Z,101614.81
2023-01-06T12:09:13.146Z,101607.69
2023-01-06T12:11:21.099Z,101624.38
2023-01-06T12:13:23.748Z,101606.94
2023-01-06T12:15:29.159Z,101617.69
2023-01-06T12:17:57.862Z,101616.81
2023-01-06T12:20:05.951Z,101609.00
2023-01-06T12:22:22.426Z,101602.88
2023-01-06T12:24:25.519Z,101600.28
2023-01-06T12:26:28.235Z,101611.78
2023-01-06T12:28:37.579Z,101606.56
2023-01-06T12:31:00.404Z,101611.16
2023-01-06T12:33:17.574Z,101603.38
2023-01-06T12:35:23.994Z,101602.63
2023-01-06T12:37:34.372Z,101595.59
2023-01-06T12:39:47.156Z,101606.19
2023-01-06T12:42:10.603Z,101612.47
2023-01-06T12:44:30.478Z,101616.06
2023-01-06T12:46:42.603Z,101622.28
2023-01-06T12:48:52.872Z,101616.28
2023-01-06T12:51:04.065Z,101611.97
2023-01-06T12:53:20.518Z,101611.13
2023-01-06T12:55:51.732Z,101611.09
2023-01-06T12:58:05.292Z,101618.16
2023-01-06T13:00:22.642Z,101620.53
2023-01-06T13:02:29.799Z,101622.94
2023-01-06T13:04:37.263Z,101627.34
2023-01-06T13:07:06.137Z,101626.63
2023-01-06T13:09:23.354Z,101630.28
2023-01-06T13:11:39.990Z,101624.25
2023-01-06T13:14:00.138Z,101634.94
2023-01-06T13:16:09.022Z,101628.91
2023-01-06T13:18:19.195Z,101627.19
2023-01-06T13:20:26.116Z,101636.94
2023-01-06T13:23:07.180Z,101627.34
2023-01-06T13:25:43.553Z,101625.63
2023-01-06T13:27:50.881Z,101632.78
2023-01-06T13:30:00.800Z,101639.00
2023-01-06T13:32:08.208Z,101643.44
2023-01-06T13:34:26.700Z,101643.47
2023-01-06T13:37:05.901Z,101652.28
2023-01-06T13:39:09.712Z,101652.38
2023-01-06T13:41:16.558Z,101651.53
2023-01-06T13:43:23.581Z,101655.94
2023-01-06T13:45:35.914Z,101659.44
2023-01-06T13:47:38.160Z,101658.59
2023-01-06T13:49:41.544Z,101661.28
2023-01-06T13:51:44.357Z,101652.53
2023-01-06T13:53:47.004Z,101663.94
2023-01-06T13:56:08.935Z,101659.59
2023-01-06T13:58:34.360Z,101662.19
2023-01-06T14:00:35.837Z,101663.06
2023-01-06T14:02:39.902Z,101659.47
2023-01-06T14:04:43.977Z,101651.56
2023-01-06T14:06:46.655Z,101654.19
2023-01-06T14:08:51.436Z,101660.41
2023-01-06T14:11:02.313Z,101661.31
2023-01-06T14:13:35.693Z,101669.25
2023-01-06T14:18:31.025Z,101676.31
2023-01-06T14:20:38.240Z,101671.94
2023-01-06T14:22:40.488Z,101676.41
2023-01-06T14:25:01.411Z,101668.53
2023-01-06T14:27:08.163Z,101672.97
2023-01-06T14:29:40.814Z,101672.13
2023-01-06T14:31:42.475Z,101673.94
2023-01-06T14:33:44.938Z,101674.03
2023-01-06T14:35:47.724Z,101681.06
2023-01-06T14:37:53.324Z,101674.94
2023-01-06T14:39:56.572Z,101679.34
2023-01-06T14:42:05.067Z,101683.75
2023-01-06T14:44:16.973Z,101692.56
2023-01-06T14:46:26.763Z,101687.31
2023-01-06T14:48:32.407Z,101695.25
2023-01-06T14:50:47.121Z,101691.78
2023-01-06T14:52:57.924Z,101692.69
2023-01-06T14:55:00.474Z,101690.97
2023-01-06T14:57:03.592Z,101692.78
2023-01-06T14:59:14.108Z,101692.78
2023-01-06T15:01:25.182Z,101695.47
2023-01-06T15:03:28.493Z,101706.88
2023-01-06T15:05:36.072Z,101711.31
2023-01-06T15:07:37.519Z,101704.31
2023-01-06T15:09:38.994Z,101706.94
2023-01-06T15:11:42.710Z,101709.56
2023-01-06T15:13:44.990Z,101709.59
2023-01-06T15:15:54.122Z,101716.59
2023-01-06T15:17:57.529Z,101713.97
2023-01-06T15:19:59.233Z,101715.75
2023-01-06T15:22:05.432Z,101713.16
2023-01-06T15:24:20.376Z,101708.81
2023-01-06T15:26:27.692Z,101706.19
2023-01-06T15:28:31.511Z,101715.88
2023-01-06T15:30:36.513Z,101714.13
2023-01-06T15:32:41.032Z,101721.16
2023-01-06T15:34:46.532Z,101720.28
2023-01-06T15:36:50.885Z,101724.69
2023-01-06T15:38:54.421Z,101730.84
2023-01-06T15:40:56.015Z,101722.97
2023-01-06T15:42:57.844Z,101721.19
2023-01-06T15:45:01.444Z,101722.97
2023-01-06T15:47:06.679Z,101709.81
2023-01-06T15:49:21.435Z,101711.59
2023-01-06T15:51:22.957Z,101708.13
2023-01-06T15:53:28.254Z,101724.81
2023-01-06T15:55:32.050Z,101721.34
2023-01-06T15:57:38.985Z,101722.25
2023-01-06T15:59:42.191Z,101719.63
2023-01-06T16:01:50.265Z,101727.53
2023-01-06T16:03:54.943Z,101728.41
2023-01-06T16:06:14.764Z,101721.41
2023-01-06T16:08:25.982Z,101716.19
2023-01-06T16:10:38.493Z,101710.03
2023-01-06T16:12:40.059Z,101708.28
2023-01-06T16:14:46.059Z,101712.66
2023-01-06T16:16:47.567Z,101714.44
2023-01-06T16:18:51.269Z,101724.09
2023-01-06T16:20:53.005Z,101721.50
2023-01-06T16:22:56.121Z,101718.00
2023-01-06T16:25:00.619Z,101731.13
2023-01-06T16:27:05.964Z,101722.38
2023-01-06T16:29:29.179Z,101721.50
2023-01-06T16:31:36.396Z,101724.13
2023-01-06T16:33:45.793Z,101724.16
2023-01-06T16:35:52.137Z,101725.03
2023-01-06T16:37:54.075Z,101733.81
2023-01-06T16:39:59.215Z,101725.94
2023-01-06T16:42:00.639Z,101725.09
2023-01-06T16:44:02.066Z,101725.06
2023-01-06T16:46:13.762Z,101726.81
2023-01-06T16:48:16.787Z,101728.59
2023-01-06T16:50:22.649Z,101732.09
2023-01-06T16:52:25.570Z,101738.22
2023-01-06T16:54:27.206Z,101740.84
2023-01-06T16:56:29.247Z,101735.59
2023-01-06T16:58:32.899Z,101733.84
2023-01-06T17:00:39.734Z,101745.25
2023-01-06T17:02:42.259Z,101742.63
2023-01-06T17:04:45.441Z,101750.50
2023-01-06T17:06:47.002Z,101747.03
2023-01-06T17:08:49.359Z,101747.91
2023-01-06T17:10:51.910Z,101746.16
2023-01-06T17:13:20.041Z,101748.78
2023-01-06T17:15:21.675Z,101746.16
2023-01-06T17:17:23.274Z,101736.53
2023-01-06T17:19:28.694Z,101743.53
2023-01-06T17:21:37.254Z,101737.41
2023-01-06T17:24:02.477Z,101745.31
2023-01-06T17:26:11.993Z,101737.41
2023-01-06T17:28:22.058Z,101738.28
2023-01-06T17:30:23.530Z,101740.06
2023-01-06T17:32:32.593Z,101746.19
2023-01-06T17:34:36.599Z,101744.44
2023-01-06T17:36:40.233Z,101740.94
2023-01-06T17:38:44.778Z,101753.22
2023-01-06T17:40:46.364Z,101749.69
2023-01-06T17:43:00.844Z,101745.31
2023-01-06T17:45:16.513Z,101748.81
2023-01-06T17:47:17.903Z,101746.22
2023-01-06T17:49:19.299Z,101754.97
2023-01-06T17:51:20.903Z,101754.97
2023-01-06T17:53:46.826Z,101759.34
2023-01-06T17:55:49.854Z,101757.59
2023-01-06T17:57:55.303Z,101757.59
2023-01-06T17:59:57.566Z,101753.22
2023-01-06T18:02:01.131Z,101757.59
2023-01-06T18:04:06.510Z,101755.84
2023-01-06T18:06:20.212Z,101760.22
2023-01-06T18:08:21.988Z,101759.34
2023-01-06T18:10:23.479Z,101765.47
2023-01-06T18:12:25.178Z,101762.81
2023-01-06T18:14:33.591Z,101771.59
2023-01-06T18:16:35.475Z,101770.72
2023-01-06T18:18:42.013Z,101769.84
2023-01-06T18:20:58.734Z,101770.72
2023-01-06T18:23:00.434Z,101768.09
2023-01-06T18:25:02.351Z,101773.34
2023-01-06T18:27:22.123Z,101766.34
2023-01-06T18:29:34.208Z,101767.22
2023-01-06T18:31:39.317Z,101770.72
2023-01-06T18:33:40.879Z,101774.25
2023-01-06T18:35:42.792Z,101767.22
2023-01-06T18:37:44.915Z,101777.75
2023-01-06T18:39:50.015Z,101775.13
2023-01-06T18:42:17.175Z,101782.16
2023-01-06T18:44:20.456Z,101781.28
2023-01-06T18:46:22.129Z,101777.78
2023-01-06T18:48:27.184Z,101782.16
2023-01-06T18:50:42.892Z,101777.78
2023-01-06T18:52:46.188Z,101776.03
2023-01-06T18:54:47.743Z,101776.06
2023-01-06T18:56:51.257Z,101780.44
2023-01-06T18:58:57.179Z,101775.16
2023-01-06T19:01:11.228Z,101780.41
2023-01-06T19:03:57.395Z,101775.16
2023-01-06T19:06:10.764Z,101780.44
2023-01-06T19:08:22.861Z,101783.06
2023-01-06T19:10:27.898Z,101783.94
2023-01-06T19:12:39.853Z,101783.06
2023-01-06T19:14:44.422Z,101786.56
2023-01-06T19:16:54.794Z,101790.09
2023-01-06T19:19:08.520Z,101788.34
2023-01-06T19:21:14.682Z,101786.59
2023-01-06T19:23:22.915Z,101783.97
2023-01-06T19:25:43.062Z,101785.72
2023-01-06T19:27:48.241Z,101788.34
2023-01-06T19:29:51.724Z,101787.47
2023-01-06T19:31:56.716Z,101790.97
2023-01-06T19:34:03.786Z,101786.59
2023-01-06T19:36:40.488Z,101782.19
2023-01-06T19:38:44.062Z,101780.44
2023-01-06T19:40:45.622Z,101778.69
2023-01-06T19:42:47.102Z,101775.19
2023-01-06T19:44:50.343Z,101763.78
2023-01-06T19:46:52.169Z,101766.41
2023-01-06T19:48:55.662Z,101759.41
2023-01-06T19:51:15.769Z,101767.28
2023-01-06T19:53:43.343Z,101766.41
2023-01-06T19:55:44.838Z,101755.91
2023-01-06T19:57:51.495Z,101759.41
2023-01-06T19:59:54.227Z,101761.16
2023-01-06T20:02:07.719Z,101757.66
2023-01-06T20:04:23.900Z,101756.78
2023-01-06T20:06:25.335Z,101760.25
2023-01-06T20:08:27.005Z,101762.88
2023-01-06T20:10:28.494Z,101762.00
2023-01-06T20:12:30.039Z,101768.97
2023-01-06T20:14:31.517Z,101767.22
2023-01-06T20:16:33.340Z,101762.84
2023-01-06T20:18:34.980Z,101757.59
2023-01-06T20:20:36.603Z,101754.97
2023-01-06T20:22:38.079Z,101761.09
2023-01-06T20:24:39.930Z,101768.09
2023-01-06T20:26:41.774Z,101775.09
2023-01-06T20:28:43.599Z,101778.59
2023-01-06T20:30:46.428Z,101773.34
2023-01-06T20:32:48.015Z,101782.09
2023-01-06T20:34:49.527Z,101777.72
2023-01-06T20:36:51.098Z,101771.63
2023-01-06T20:38:52.744Z,101772.50
2023-01-06T20:40:54.341Z,101775.09
2023-01-06T20:42:56.021Z,101769.84
2023-01-06T20:44:57.724Z,101770.72
2023-01-06T20:46:59.183Z,101764.59
2023-01-06T20:49:00.770Z,101765.47
2023-01-06T20:51:02.636Z,101759.31
2023-01-06T20:53:04.223Z,101761.94
2023-01-06T20:55:06.148Z,101764.53
2023-01-06T20:57:07.763Z,101766.22
2023-01-06T20:59:09.327Z,101764.47
2023-01-06T21:01:10.976Z,101762.69
2023-01-06T21:03:12.694Z,101765.31
2023-01-06T21:05:14.275Z,101760.91
2023-01-06T21:07:15.746Z,101761.75
2023-01-06T21:09:17.262Z,101760.88
2023-01-06T21:11:18.740Z,101761.69
2023-01-06T21:13:23.966Z,101760.78
2023-01-06T21:15:28.284Z,101765.13
2023-01-06T21:17:29.819Z,101765.13
2023-01-06T21:19:31.336Z,101772.09
2023-01-06T21:21:32.817Z,101767.66
2023-01-06T21:23:34.273Z,101778.13
2023-01-06T21:25:36.192Z,101778.13
2023-01-06T21:27:37.796Z,101773.72
2023-01-06T21:29:39.423Z,101773.72
2023-01-06T21:31:41.075Z,101764.97
2023-01-06T21:33:42.549Z,101766.72
2023-01-06T21:35:44.044Z,101771.09
2023-01-06T21:37:45.663Z,101764.09
2023-01-06T21:39:48.158Z,101763.22
2023-01-06T21:42:08.192Z,101757.09
2023-01-06T21:44:09.679Z,101754.47
2023-01-06T21:46:11.339Z,101747.47
2023-01-06T21:48:14.015Z,101756.19
2023-01-06T21:50:15.649Z,101748.34
2023-01-06T21:52:17.639Z,101750.09
2023-01-06T21:54:19.170Z,101741.34
2023-01-06T21:56:20.691Z,101747.47
2023-01-06T21:58:23.200Z,101733.50
2023-01-06T22:00:24.675Z,101729.13
2023-01-06T22:02:26.269Z,101727.38
2023-01-06T22:04:27.812Z,101735.22
2023-01-06T22:06:29.948Z,101738.69
2023-01-06T22:08:32.739Z,101729.06
2023-01-06T22:10:36.954Z,101728.16
2023-01-06T22:12:41.324Z,101729.91
2023-01-06T22:14:43.636Z,101746.47
2023-01-06T22:16:45.704Z,101752.53
2023-01-06T22:18:47.306Z,101744.69
2023-01-06T22:20:48.954Z,101745.53
2023-01-06T22:22:50.484Z,101760.34
2023-01-06T22:24:53.294Z,101756.84
2023-01-06T22:26:54.905Z,101761.22
2023-01-06T22:28:56.351Z,101752.50
2023-01-06T22:30:58.074Z,101756.00
2023-01-06T22:32:59.573Z,101748.16
2023-01-06T22:35:01.007Z,101756.88
2023-01-06T22:37:02.511Z,101762.13
2023-01-06T22:39:04.603Z,101756.03
2023-01-06T22:41:07.090Z,101753.44
2023-01-06T22:43:08.605Z,101749.09
2023-01-06T22:45:11.372Z,101755.25
2023-01-06T22:47:12.894Z,101743.97
2023-01-06T22:49:15.039Z,101746.63
2023-01-06T22:51:16.771Z,101740.56
2023-01-06T22:53:18.219Z,101746.69
2023-01-06T22:55:19.758Z,101740.56
2023-01-06T22:57:21.305Z,101739.69
2023-01-06T22:59:22.797Z,101740.53
2023-01-06T23:01:24.306Z,101747.56
2023-01-06T23:03:26.212Z,101743.28
2023-01-06T23:05:28.895Z,101743.31
2023-01-06T23:07:30.348Z,101751.19
2023-01-06T23:09:31.799Z,101741.56
2023-01-06T23:11:35.329Z,101738.97
2023-01-06T23:13:38.119Z,101737.28
2023-01-06T23:15:39.621Z,101739.94
2023-01-06T23:17:41.142Z,101732.94
2023-01-06T23:19:42.607Z,101740.81
2023-01-06T23:21:44.653Z,101742.59
2023-01-06T23:23:47.469Z,101746.97
2023-01-06T23:25:48.932Z,101745.25
2023-01-06T23:27:50.408Z,101745.31
2023-01-06T23:29:51.891Z,101740.97
2023-01-06T23:31:53.349Z,101733.09
2023-01-06T23:33:57.081Z,101737.47
2023-01-06T23:36:02.924Z,101728.72
2023-01-06T23:38:04.392Z,101726.09
2023-01-06T23:40:06.338Z,101729.59
2023-01-06T23:42:07.797Z,101722.59
2023-01-06T23:44:14.733Z,101723.50
2023-01-06T23:46:19.032Z,101723.50
2023-01-06T23:48:20.541Z,101722.63
2023-01-06T23:50:22.001Z,101730.50
2023-01-06T23:52:23.494Z,101725.25
2023-01-06T23:54:24.979Z,101726.16
2023-01-06T23:56:28.357Z,101727.91
2023-01-06T23:58:32.384Z,101721.78
